createdAt,value
2022-09-16T00:04:58.730Z,99071.59
2022-09-16T00:10:01.205Z,99076.19
2022-09-16T00:15:04.312Z,99080.94
2022-09-16T00:20:07.478Z,99070.47
2022-09-16T00:25:10.121Z,99080.50
2022-09-16T00:30:12.863Z,99077.84
2022-09-16T00:35:15.203Z,99077.78
2022-09-16T00:40:17.667Z,99078.47
2022-09-16T00:45:23.440Z,99084.50
2022-09-16T00:50:38.616Z,99092.47
2022-09-16T00:55:40.994Z,99084.34
2022-09-16T01:00:44.045Z,99084.47
2022-09-16T01:05:46.834Z,99067.56
2022-09-16T01:10:49.180Z,99088.16
2022-09-16T01:16:13.196Z,99092.00
2022-09-16T01:21:21.485Z,99086.81
2022-09-16T01:26:42.330Z,99082.34
2022-09-16T01:32:10.576Z,99075.84
2022-09-16T01:37:37.198Z,99071.28
2022-09-16T01:42:50.907Z,99075.59
2022-09-16T01:47:57.725Z,99078.56
2022-09-16T01:53:15.792Z,99072.59
2022-09-16T01:58:28.209Z,99069.16
2022-09-16T02:03:35.819Z,99074.72
2022-09-16T02:08:41.934Z,99081.84
2022-09-16T02:14:06.866Z,99078.28
2022-09-16T02:19:32.562Z,99075.16
2022-09-16T02:24:36.108Z,99072.41
2022-09-16T02:30:00.660Z,99072.50
2022-09-16T02:35:04.326Z,99068.28
2022-09-16T02:40:13.465Z,99065.00
2022-09-16T02:45:16.493Z,99079.56
2022-09-16T02:50:27.752Z,99090.88
2022-09-16T02:55:41.262Z,99082.97
2022-09-16T03:00:46.938Z,99087.72
2022-09-16T03:06:15.273Z,99093.66
2022-09-16T03:11:20.681Z,99095.88
2022-09-16T03:16:41.554Z,99084.38
2022-09-16T03:21:56.558Z,99083.59
2022-09-16T03:27:29.597Z,99101.31
2022-09-16T03:32:43.629Z,99099.75
2022-09-16T03:37:47.012Z,99101.31
2022-09-16T03:42:49.465Z,99098.25
2022-09-16T03:47:53.814Z,99092.69
2022-09-16T03:52:56.115Z,99094.25
2022-09-16T03:57:58.439Z,99101.25
2022-09-16T04:03:01.414Z,99099.66
2022-09-16T04:08:03.837Z,99104.47
2022-09-16T04:13:06.303Z,99103.50
2022-09-16T04:18:08.609Z,99097.22
2022-09-16T04:23:11.012Z,99107.31
2022-09-16T04:28:13.307Z,99100.25
2022-09-16T04:33:15.689Z,99100.97
2022-09-16T04:38:18.115Z,99109.34
2022-09-16T04:43:20.420Z,99113.88
2022-09-16T04:48:22.945Z,99104.84
2022-09-16T04:53:25.274Z,99116.59
2022-09-16T04:58:29.998Z,99103.13
2022-09-16T05:03:33.196Z,99095.22
2022-09-16T05:08:35.661Z,99098.09
2022-09-16T05:13:38.664Z,99103.94
2022-09-16T05:18:42.431Z,99102.34
2022-09-16T05:23:46.885Z,99103.94
2022-09-16T05:28:51.057Z,99100.03
2022-09-16T05:33:56.243Z,99108.91
2022-09-16T05:39:21.494Z,99106.88
2022-09-16T05:44:21.320Z,99111.22
2022-09-16T05:49:24.035Z,99109.78
2022-09-16T05:54:26.538Z,99116.22
2022-09-16T05:59:28.832Z,99107.53
2022-09-16T06:04:31.206Z,99103.69
2022-09-16T06:09:33.531Z,99086.22
2022-09-16T06:14:35.897Z,99080.53
2022-09-16T06:19:38.218Z,99090.88
2022-09-16T06:24:40.538Z,99092.25
2022-09-16T06:29:42.803Z,99101.91
2022-09-16T06:34:45.168Z,99099.13
2022-09-16T06:39:47.580Z,99091.66
2022-09-16T06:44:49.911Z,99098.16
2022-09-16T06:49:52.343Z,99076.06
2022-09-16T06:54:55.366Z,99088.47
2022-09-16T06:59:58.295Z,99087.88
2022-09-16T07:05:02.169Z,99106.53
2022-09-16T07:10:05.438Z,99102.56
2022-09-16T07:15:08.467Z,99096.75
2022-09-16T07:20:10.914Z,99096.91
2022-09-16T07:25:13.228Z,99103.50
2022-09-16T07:30:15.725Z,99095.78
2022-09-16T07:35:18.054Z,99083.75
2022-09-16T07:40:20.536Z,99089.69
2022-09-16T07:45:22.952Z,99092.25
2022-09-16T07:50:25.406Z,99099.81
2022-09-16T07:55:27.797Z,99109.28
2022-09-16T08:00:30.129Z,99107.84
2022-09-16T08:05:32.807Z,99099.81
2022-09-16T08:10:37.079Z,99118.44
2022-09-16T08:15:39.357Z,99116.56
2022-09-16T08:20:41.715Z,99118.63
2022-09-16T08:25:44.107Z,99123.75
2022-09-16T08:30:49.042Z,99119.56
2022-09-16T08:36:05.390Z,99122.47
2022-09-16T08:41:18.845Z,99118.78
2022-09-16T08:46:29.882Z,99117.13
2022-09-16T08:51:32.947Z,99101.63
2022-09-16T08:56:38.515Z,99112.09
2022-09-16T09:02:08.155Z,99078.22
2022-09-16T09:07:29.839Z,99089.03
2022-09-16T09:13:01.232Z,99095.16
2022-09-16T09:18:38.439Z,99098.59
2022-09-16T09:23:55.876Z,99107.97
2022-09-16T09:29:16.344Z,99104.75
2022-09-16T09:34:24.644Z,99096.13
2022-09-16T09:39:38.172Z,99091.53
2022-09-16T09:44:48.370Z,99108.91
2022-09-16T09:49:58.631Z,99100.84
2022-09-16T09:55:16.380Z,99097.03
2022-09-16T10:00:19.331Z,99080.91
2022-09-16T10:05:23.995Z,99100.09
2022-09-16T10:10:28.722Z,99098.19
2022-09-16T10:15:32.047Z,99091.56
2022-09-16T10:20:45.557Z,99090.66
2022-09-16T10:25:48.002Z,99092.13
2022-09-16T10:30:55.448Z,99103.28
2022-09-16T10:36:09.636Z,99087.34
2022-09-16T10:41:22.193Z,99093.88
2022-09-16T10:46:24.706Z,99089.47
2022-09-16T10:51:33.559Z,99094.03
2022-09-16T10:56:48.306Z,99107.19
2022-09-16T11:02:09.693Z,99093.94
2022-09-16T11:07:24.285Z,99094.44
2022-09-16T11:12:43.782Z,99118.66
2022-09-16T11:18:01.867Z,99117.53
2022-09-16T11:23:25.322Z,99120.25
2022-09-16T11:28:46.016Z,99120.84
2022-09-16T11:34:01.425Z,99086.19
2022-09-16T11:39:25.297Z,99098.41
2022-09-16T11:44:46.456Z,99095.47
2022-09-16T11:49:54.536Z,99085.22
2022-09-16T11:55:24.000Z,99084.78
2022-09-16T12:00:26.563Z,99060.25
2022-09-16T12:05:36.550Z,99101.44
2022-09-16T12:10:49.441Z,99088.59
2022-09-16T12:15:55.316Z,99084.31
2022-09-16T12:21:09.462Z,99067.72
2022-09-16T12:26:37.162Z,99080.81
2022-09-16T12:31:45.663Z,99085.63
2022-09-16T12:36:59.500Z,99082.03
2022-09-16T12:42:07.806Z,99083.78
2022-09-16T12:47:40.838Z,99067.19
2022-09-16T12:52:57.443Z,99070.63
2022-09-16T12:58:36.985Z,99067.63
2022-09-16T13:03:43.648Z,99062.84
2022-09-16T13:08:46.293Z,99050.63
2022-09-16T13:13:52.265Z,99062.13
2022-09-16T13:19:16.659Z,99042.31
2022-09-16T13:24:37.924Z,99050.84
2022-09-16T13:29:44.870Z,99048.13
2022-09-16T13:34:47.276Z,99033.19
2022-09-16T13:39:50.455Z,99035.88
2022-09-16T13:44:53.093Z,99030.97
2022-09-16T13:50:15.577Z,99040.84
2022-09-16T13:55:26.282Z,99044.34
2022-09-16T14:00:37.720Z,99033.94
2022-09-16T14:06:18.474Z,99028.78
2022-09-16T14:11:27.750Z,99033.16
2022-09-16T14:16:31.278Z,99041.81
2022-09-16T14:21:33.873Z,99042.00
2022-09-16T14:26:36.260Z,99043.56
2022-09-16T14:31:39.591Z,99043.69
2022-09-16T14:36:43.432Z,99051.00
2022-09-16T14:41:49.004Z,99053.88
2022-09-16T14:47:09.038Z,99057.38
2022-09-16T14:52:21.272Z,99052.53
2022-09-16T14:57:25.821Z,99045.63
2022-09-16T15:02:39.002Z,99043.59
2022-09-16T15:08:02.607Z,99043.53
2022-09-16T15:13:13.545Z,99051.59
2022-09-16T15:18:28.811Z,99056.72
2022-09-16T15:23:31.432Z,99054.38
2022-09-16T15:28:34.189Z,99050.97
2022-09-16T15:33:42.681Z,99041.50
2022-09-16T15:38:45.035Z,99048.91
2022-09-16T15:43:47.587Z,99042.59
2022-09-16T15:49:00.532Z,99046.16
2022-09-16T15:54:08.963Z,99048.69
2022-09-16T15:59:31.697Z,99048.97
2022-09-16T16:04:35.318Z,99048.44
2022-09-16T16:09:40.482Z,99036.25
2022-09-16T16:14:43.646Z,99043.88
2022-09-16T16:19:48.448Z,99048.88
2022-09-16T16:24:51.042Z,99046.94
2022-09-16T16:29:53.364Z,99055.03
2022-09-16T16:34:58.150Z,99057.47
2022-09-16T16:40:00.714Z,99056.78
2022-09-16T16:45:03.026Z,99047.16
2022-09-16T16:50:05.895Z,99038.38
2022-09-16T16:55:08.521Z,99051.47
2022-09-16T17:00:13.654Z,99052.69
2022-09-16T17:05:16.008Z,99059.78
2022-09-16T17:10:18.381Z,99065.00
2022-09-16T17:15:20.754Z,99066.13
2022-09-16T17:20:23.243Z,99064.31
2022-09-16T17:25:25.588Z,99062.47
2022-09-16T17:30:28.043Z,99052.56
2022-09-16T17:35:30.379Z,99073.66
2022-09-16T17:40:32.917Z,99082.75
2022-09-16T17:45:35.335Z,99090.53
2022-09-16T17:50:38.792Z,99102.44
2022-09-16T17:55:41.177Z,99089.72
2022-09-16T18:00:44.365Z,99081.41
2022-09-16T18:05:46.913Z,99085.47
2022-09-16T18:10:55.537Z,99085.78
2022-09-16T18:16:07.207Z,99079.22
2022-09-16T18:21:12.155Z,99082.28
2022-09-16T18:26:15.349Z,99066.72
2022-09-16T18:31:20.749Z,99081.50
2022-09-16T18:36:25.591Z,99080.72
2022-09-16T18:41:35.912Z,99073.63
2022-09-16T18:46:39.098Z,99069.19
2022-09-16T18:51:48.526Z,99079.53
2022-09-16T18:56:55.803Z,99062.03
2022-09-16T19:02:00.040Z,99073.94
2022-09-16T19:07:08.897Z,99075.38
2022-09-16T19:12:13.000Z,99082.00
2022-09-16T19:17:15.365Z,99077.47
2022-09-16T19:22:18.428Z,99073.63
2022-09-16T19:27:20.832Z,99066.72
2022-09-16T19:32:23.242Z,99055.16
2022-09-16T19:37:25.723Z,99044.88
2022-09-16T19:42:28.326Z,99049.03
2022-09-16T19:47:30.667Z,99032.03
2022-09-16T19:52:33.171Z,99028.00
2022-09-16T19:57:36.375Z,99045.50
2022-09-16T20:02:38.769Z,99052.09
2022-09-16T20:07:41.115Z,99047.09
2022-09-16T20:12:43.443Z,99053.22
2022-09-16T20:17:45.817Z,99059.31
2022-09-16T20:22:48.234Z,99061.56
2022-09-16T20:27:50.976Z,99055.16
2022-09-16T20:32:53.324Z,99065.09
2022-09-16T20:37:55.624Z,99069.09
2022-09-16T20:42:58.273Z,99069.13
2022-09-16T20:48:00.597Z,99077.97
2022-09-16T20:53:02.926Z,99063.63
2022-09-16T20:58:05.285Z,99058.84
2022-09-16T21:03:07.659Z,99063.63
2022-09-16T21:08:09.979Z,99060.59
2022-09-16T21:13:12.271Z,99064.94
2022-09-16T21:18:15.052Z,99040.22
2022-09-16T21:23:17.352Z,99056.75
2022-09-16T21:28:19.742Z,99064.00
2022-09-16T21:33:22.820Z,99074.09
2022-09-16T21:38:25.863Z,99065.78
2022-09-16T21:43:30.667Z,99053.88
2022-09-16T21:48:33.327Z,99053.09
2022-09-16T21:53:45.777Z,99053.56
2022-09-16T21:58:49.651Z,99056.94
2022-09-16T22:04:00.371Z,99049.00
2022-09-16T22:09:07.059Z,99046.56
2022-09-16T22:14:10.915Z,99051.47
2022-09-16T22:19:15.905Z,99049.97
2022-09-16T22:24:22.182Z,99057.47
2022-09-16T22:29:24.663Z,99038.66
2022-09-16T22:34:27.005Z,99057.50
2022-09-16T22:39:29.518Z,99060.66
2022-09-16T22:44:31.880Z,99044.16
2022-09-16T22:49:34.202Z,99019.09
2022-09-16T22:54:36.505Z,99027.88
2022-09-16T22:59:38.860Z,99041.69
2022-09-16T23:04:41.229Z,99028.78
2022-09-16T23:09:43.722Z,99030.56
2022-09-16T23:14:46.072Z,99027.88
2022-09-16T23:19:48.382Z,99029.22
2022-09-16T23:24:50.713Z,99022.50
2022-09-16T23:29:53.056Z,99010.44
2022-09-16T23:34:55.420Z,99027.38
2022-09-16T23:39:57.785Z,99034.56
2022-09-16T23:45:00.147Z,99028.31
2022-09-16T23:50:02.459Z,99028.16
2022-09-16T23:55:05.741Z,99029.13
